Ansonia, Pennsylvania
Current Conditions -  °F | °C
As of 6:15 AM on Wednesday 26 Nov 2014 (Local Time) from KN38 Reporting Station
Overcast Overcast  
Wind Chill: 23°   Ceiling: 1000
Heat Index: 30°   Visibility: 10mi
Dew Point: 25°   Wind: 7mph
Humidity: 80%   Direction: 40°NE
Pressure: 30.12"   Gusts: NA
Location:  41.7308°N, 77.349°W
Report Text: KN38 261115Z AUTO 04006KT 10SM BKN010 BKN065 OVC110 M01/M04 A3012 RMK AO2
Loading
Personal Weather Stations






























Interactive Weather Map New forecast layout! Learn more

10-Day Weather Forecast

Advertisements
Track Severe Weather on mobile